createdAt,value
2022-10-09T00:01:21.544Z,6.75
2022-10-09T00:06:35.175Z,6.43
2022-10-09T00:11:37.870Z,5.97
2022-10-09T00:16:40.786Z,5.95
2022-10-09T00:21:43.531Z,5.75
2022-10-09T00:26:48.186Z,5.40
2022-10-09T00:31:52.163Z,5.82
2022-10-09T00:36:54.848Z,5.40
2022-10-09T00:41:57.604Z,6.30
2022-10-09T00:47:00.426Z,6.10
2022-10-09T00:52:04.830Z,6.65
2022-10-09T00:57:08.328Z,5.90
2022-10-09T01:02:11.088Z,6.70
2022-10-09T01:07:42.950Z,6.40
2022-10-09T01:13:09.080Z,5.70
2022-10-09T01:18:28.599Z,5.38
2022-10-09T01:24:00.747Z,6.00
2022-10-09T01:29:07.318Z,6.10
2022-10-09T01:34:12.428Z,5.93
2022-10-09T01:39:19.535Z,5.97
2022-10-09T01:44:25.059Z,6.10
2022-10-09T01:54:55.024Z,5.30
2022-10-09T01:59:59.133Z,5.35
2022-10-09T02:05:02.162Z,5.78
2022-10-09T02:10:06.199Z,5.25
2022-10-09T02:15:09.761Z,5.25
2022-10-09T02:20:31.809Z,5.47
2022-10-09T02:25:34.923Z,5.53
2022-10-09T02:30:52.745Z,5.35
2022-10-09T02:35:55.497Z,4.85
2022-10-09T02:41:01.734Z,5.70
2022-10-09T02:46:04.556Z,5.32
2022-10-09T02:51:07.566Z,5.05
2022-10-09T02:56:10.789Z,4.90
2022-10-09T03:01:13.561Z,5.18
2022-10-09T03:06:24.549Z,5.70
2022-10-09T03:11:27.451Z,5.40
2022-10-09T03:16:30.494Z,4.97
2022-10-09T03:21:33.196Z,4.80
2022-10-09T03:26:35.972Z,4.80
2022-10-09T03:31:53.873Z,5.20
2022-10-09T03:36:56.673Z,4.40
2022-10-09T03:41:59.346Z,4.30
2022-10-09T03:47:02.095Z,5.05
2022-10-09T03:52:05.013Z,3.97
2022-10-09T03:57:07.809Z,4.03
2022-10-09T04:02:10.738Z,3.85
2022-10-09T04:07:13.433Z,3.97
2022-10-09T04:12:16.165Z,4.22
2022-10-09T04:17:18.837Z,4.20
2022-10-09T04:22:21.527Z,4.68
2022-10-09T04:27:24.204Z,4.00
2022-10-09T04:32:26.892Z,4.55
2022-10-09T04:37:29.649Z,3.88
2022-10-09T04:42:32.355Z,3.85
2022-10-09T04:47:35.708Z,3.80
2022-10-09T04:52:38.373Z,4.00
2022-10-09T04:57:41.089Z,3.63
2022-10-09T05:02:43.850Z,3.65
2022-10-09T05:07:46.730Z,4.53
2022-10-09T05:12:49.747Z,3.97
2022-10-09T05:17:52.822Z,3.65
2022-10-09T05:22:55.532Z,3.95
2022-10-09T05:27:58.254Z,4.28
2022-10-09T05:33:00.927Z,5.68
2022-10-09T05:38:03.574Z,5.97
2022-10-09T05:43:06.300Z,5.05
2022-10-09T05:48:08.973Z,4.25
2022-10-09T05:53:11.777Z,3.22
2022-10-09T05:58:14.407Z,3.53
2022-10-09T06:03:17.126Z,3.95
2022-10-09T06:08:19.751Z,4.35
2022-10-09T06:13:22.424Z,3.78
2022-10-09T06:18:25.106Z,3.67
2022-10-09T06:23:28.403Z,3.60
2022-10-09T06:28:32.878Z,3.78
2022-10-09T06:33:37.441Z,3.22
2022-10-09T06:38:41.244Z,3.63
2022-10-09T06:43:52.096Z,3.40
2022-10-09T06:48:54.854Z,3.72
2022-10-09T06:53:59.545Z,3.53
2022-10-09T06:59:04.325Z,3.93
2022-10-09T07:04:12.185Z,4.20
2022-10-09T07:09:16.129Z,3.28
2022-10-09T07:14:18.915Z,3.90
2022-10-09T07:19:22.179Z,3.10
2022-10-09T07:24:25.809Z,3.78
2022-10-09T07:29:28.557Z,3.70
2022-10-09T07:34:31.277Z,3.92
2022-10-09T07:39:35.251Z,3.85
2022-10-09T07:44:37.925Z,4.15
2022-10-09T07:49:40.689Z,6.15
2022-10-09T07:54:43.351Z,4.38
2022-10-09T07:59:46.022Z,4.13
2022-10-09T08:04:48.749Z,4.03
2022-10-09T08:09:53.039Z,4.13
2022-10-09T08:14:55.793Z,3.78
2022-10-09T08:19:58.787Z,3.95
2022-10-09T08:25:01.554Z,4.60
2022-10-09T08:30:06.227Z,4.40
2022-10-09T08:35:09.153Z,3.85
2022-10-09T08:40:19.780Z,3.33
2022-10-09T08:45:22.477Z,4.10
2022-10-09T08:50:32.894Z,4.35
2022-10-09T08:55:45.349Z,4.40
2022-10-09T09:00:55.253Z,4.35
2022-10-09T09:06:04.246Z,4.32
2022-10-09T09:11:30.260Z,3.80
2022-10-09T09:16:51.122Z,3.30
2022-10-09T09:21:54.488Z,3.70
2022-10-09T09:27:02.728Z,3.70
2022-10-09T09:32:05.975Z,4.43
2022-10-09T09:37:11.662Z,4.35
2022-10-09T09:42:17.829Z,4.22
2022-10-09T09:47:51.614Z,4.10
2022-10-09T09:52:55.232Z,4.85
2022-10-09T09:58:03.943Z,3.97
2022-10-09T10:03:14.948Z,3.42
2022-10-09T10:08:32.673Z,3.88
2022-10-09T10:13:38.642Z,3.80
2022-10-09T10:18:42.796Z,3.78
2022-10-09T10:29:12.374Z,3.92
2022-10-09T10:34:23.810Z,5.07
2022-10-09T10:39:40.937Z,4.07
2022-10-09T10:44:49.709Z,4.80
2022-10-09T10:49:52.363Z,4.85
2022-10-09T10:55:39.949Z,5.03
2022-10-09T11:00:50.691Z,4.50
2022-10-09T11:06:03.053Z,4.88
2022-10-09T11:11:14.867Z,5.75
2022-10-09T11:16:33.263Z,6.03
2022-10-09T11:21:46.075Z,5.68
2022-10-09T11:27:29.944Z,5.13
2022-10-09T11:32:52.808Z,6.45
2022-10-09T11:38:08.620Z,7.43
2022-10-09T11:43:28.942Z,5.72
2022-10-09T11:48:47.330Z,6.13
2022-10-09T11:53:51.438Z,7.32
2022-10-09T11:59:00.255Z,7.72
2022-10-09T12:04:08.909Z,8.00
2022-10-09T12:09:30.781Z,6.40
2022-10-09T12:14:38.383Z,6.95
2022-10-09T12:19:42.387Z,7.20
2022-10-09T12:24:48.704Z,7.35
2022-10-09T12:29:55.309Z,6.70
2022-10-09T12:34:58.370Z,6.95
2022-10-09T12:40:19.074Z,6.35
2022-10-09T12:45:25.272Z,5.75
2022-10-09T12:50:32.617Z,5.43
2022-10-09T12:55:41.517Z,5.70
2022-10-09T13:00:45.587Z,5.72
2022-10-09T13:05:48.315Z,5.90
2022-10-09T13:10:51.363Z,5.30
2022-10-09T13:16:10.951Z,5.40
2022-10-09T13:21:17.335Z,4.82
2022-10-09T13:26:28.187Z,5.53
2022-10-09T13:31:32.282Z,4.88
2022-10-09T13:36:35.009Z,5.25
2022-10-09T13:41:37.761Z,4.85
2022-10-09T13:46:43.344Z,5.60
2022-10-09T13:51:46.013Z,6.50
2022-10-09T13:56:48.784Z,6.60
2022-10-09T14:01:52.353Z,6.05
2022-10-09T14:06:55.627Z,6.55
2022-10-09T14:11:58.353Z,5.80
2022-10-09T14:17:01.248Z,5.32
2022-10-09T14:22:04.240Z,5.28
2022-10-09T14:27:07.194Z,4.95
2022-10-09T14:32:10.031Z,4.88
2022-10-09T14:37:23.910Z,3.60
2022-10-09T14:42:37.470Z,4.55
2022-10-09T14:47:40.086Z,4.22
2022-10-09T14:52:43.166Z,4.35
2022-10-09T14:57:46.026Z,4.40
2022-10-09T15:02:48.876Z,5.22
2022-10-09T15:07:51.765Z,5.57
2022-10-09T15:12:54.527Z,5.53
2022-10-09T15:17:57.423Z,7.38
2022-10-09T15:23:00.426Z,7.70
2022-10-09T15:28:03.207Z,8.60
2022-10-09T15:33:06.119Z,8.85
2022-10-09T15:38:13.768Z,9.95
2022-10-09T15:43:17.971Z,10.43
2022-10-09T15:48:23.932Z,10.88
2022-10-09T15:53:26.783Z,10.30
2022-10-09T15:58:29.572Z,11.00
2022-10-09T16:03:36.438Z,11.35
2022-10-09T16:08:40.316Z,12.02
2022-10-09T16:13:46.276Z,12.07
2022-10-09T16:18:49.639Z,13.13
2022-10-09T16:23:57.338Z,13.73
2022-10-09T16:29:01.406Z,12.35
2022-10-09T16:34:05.758Z,14.05
2022-10-09T16:39:08.837Z,12.63
2022-10-09T16:44:15.007Z,12.65
2022-10-09T16:49:21.342Z,13.82
2022-10-09T16:54:27.063Z,14.10
2022-10-09T16:59:29.777Z,15.90
2022-10-09T17:04:33.309Z,16.08
2022-10-09T17:09:37.799Z,16.67
2022-10-09T17:14:41.118Z,16.40
2022-10-09T17:19:44.335Z,16.88
2022-10-09T17:24:47.091Z,14.35
2022-10-09T17:29:49.885Z,12.45
2022-10-09T17:34:52.663Z,10.60
2022-10-09T17:39:55.339Z,9.88
2022-10-09T17:44:58.278Z,9.63
2022-10-09T17:50:01.313Z,8.52
2022-10-09T17:55:06.252Z,8.57
2022-10-09T18:00:10.774Z,8.20
2022-10-09T18:05:13.734Z,8.13
2022-10-09T18:10:17.331Z,8.50
2022-10-09T18:15:20.017Z,5.28
2022-10-09T18:20:22.791Z,4.97
2022-10-09T18:25:25.447Z,3.70
2022-10-09T18:30:28.228Z,4.07
2022-10-09T18:35:31.078Z,4.22
2022-10-09T18:40:43.103Z,3.67
2022-10-09T18:45:48.306Z,3.15
2022-10-09T18:50:51.191Z,3.00
2022-10-09T18:55:54.152Z,3.78
2022-10-09T19:00:56.828Z,3.08
2022-10-09T19:05:59.606Z,3.08
2022-10-09T19:11:03.297Z,3.17
2022-10-09T19:16:06.633Z,3.30
2022-10-09T19:21:13.926Z,4.75
2022-10-09T19:26:16.822Z,4.32
2022-10-09T19:31:19.589Z,4.07
2022-10-09T19:36:22.267Z,3.88
2022-10-09T19:41:24.990Z,3.60
2022-10-09T19:46:28.416Z,3.67
2022-10-09T19:51:31.740Z,3.83
2022-10-09T19:56:35.732Z,4.18
2022-10-09T20:01:40.600Z,4.55
2022-10-09T20:06:43.600Z,4.38
2022-10-09T20:11:46.333Z,5.00
2022-10-09T20:16:49.110Z,4.75
2022-10-09T20:21:51.755Z,4.38
2022-10-09T20:26:54.479Z,4.30
2022-10-09T20:31:57.228Z,4.43
2022-10-09T20:37:00.025Z,4.70
2022-10-09T20:42:02.781Z,4.20
2022-10-09T20:47:05.521Z,4.93
2022-10-09T20:52:08.170Z,4.65
2022-10-09T20:57:10.834Z,4.78
2022-10-09T21:02:14.643Z,5.15
2022-10-09T21:07:17.348Z,4.63
2022-10-09T21:12:20.039Z,4.45
2022-10-09T21:17:22.832Z,4.47
2022-10-09T21:22:26.292Z,4.90
2022-10-09T21:27:29.147Z,4.50
2022-10-09T21:32:31.817Z,5.75
2022-10-09T21:37:37.387Z,5.70
2022-10-09T21:42:40.273Z,5.15
2022-10-09T21:47:42.937Z,5.28
2022-10-09T21:52:45.649Z,5.45
2022-10-09T21:57:48.515Z,5.38
2022-10-09T22:02:51.717Z,5.43
2022-10-09T22:07:54.777Z,4.97
2022-10-09T22:12:57.454Z,4.82
2022-10-09T22:18:00.200Z,4.22
2022-10-09T22:23:02.903Z,3.20
2022-10-09T22:28:06.500Z,2.90
2022-10-09T22:33:09.237Z,3.15
2022-10-09T22:38:11.905Z,2.70
2022-10-09T22:43:14.617Z,2.38
2022-10-09T22:48:17.358Z,2.40
2022-10-09T22:53:20.120Z,2.50
2022-10-09T22:58:22.727Z,2.50
2022-10-09T23:03:25.428Z,2.25
2022-10-09T23:08:28.116Z,2.20
2022-10-09T23:13:30.888Z,2.08
2022-10-09T23:18:34.246Z,2.40
2022-10-09T23:23:37.086Z,2.03
2022-10-09T23:28:40.322Z,2.30
2022-10-09T23:33:44.450Z,2.17
2022-10-09T23:38:47.721Z,2.50
2022-10-09T23:43:51.113Z,2.50
2022-10-09T23:48:54.287Z,2.30
2022-10-09T23:53:58.186Z,2.50
2022-10-09T23:59:02.685Z,2.10
